createdAt,value
2019-02-22T00:01:01.014Z,1025.17
2019-02-22T00:02:05.305Z,1025.18
2019-02-22T00:03:09.475Z,1025.22
2019-02-22T00:04:13.761Z,1025.23
2019-02-22T00:05:18.030Z,1025.23
2019-02-22T00:06:22.297Z,1025.27
2019-02-22T00:07:26.490Z,1025.25
2019-02-22T00:08:30.685Z,1025.27
2019-02-22T00:09:34.998Z,1025.32
2019-02-22T00:10:39.223Z,1025.32
2019-02-22T00:11:43.373Z,1025.34
2019-02-22T00:12:47.718Z,1025.36
2019-02-22T00:13:52.019Z,1025.37
2019-02-22T00:14:56.215Z,1025.40
2019-02-22T00:16:00.347Z,1025.41
2019-02-22T00:17:04.618Z,1025.40
2019-02-22T00:18:08.887Z,1025.44
2019-02-22T00:19:13.045Z,1025.46
2019-02-22T00:20:17.342Z,1025.49
2019-02-22T00:21:21.587Z,1025.53
2019-02-22T00:22:25.848Z,1025.54
2019-02-22T00:23:30.111Z,1025.58
2019-02-22T00:24:34.332Z,1025.62
2019-02-22T00:25:38.564Z,1025.66
2019-02-22T00:26:42.821Z,1025.70
2019-02-22T00:27:47.150Z,1025.74
2019-02-22T00:28:51.317Z,1025.75
2019-02-22T00:29:55.537Z,1025.76
2019-02-22T00:30:59.762Z,1025.81
2019-02-22T00:32:07.021Z,1025.85
2019-02-22T00:33:10.381Z,1025.84
2019-02-22T00:34:14.669Z,1025.85
2019-02-22T00:35:18.847Z,1025.86
2019-02-22T00:36:23.061Z,1025.88
2019-02-22T00:37:27.443Z,1025.94
2019-02-22T00:38:31.591Z,1025.95
2019-02-22T00:39:35.933Z,1025.96
2019-02-22T00:40:40.222Z,1025.98
2019-02-22T00:41:44.308Z,1026.03
2019-02-22T00:42:50.313Z,1026.04
2019-02-22T00:43:52.857Z,1026.07
2019-02-22T00:44:56.926Z,1026.10
2019-02-22T00:46:01.321Z,1026.10
2019-02-22T00:47:05.513Z,1026.13
2019-02-22T00:48:09.736Z,1026.14
2019-02-22T00:49:14.142Z,1026.16
2019-02-22T00:50:18.418Z,1026.21
2019-02-22T00:51:22.494Z,1026.22
2019-02-22T00:52:26.718Z,1026.25
2019-02-22T00:53:30.967Z,1026.32
2019-02-22T00:54:35.184Z,1026.35
2019-02-22T00:55:39.497Z,1026.37
2019-02-22T00:56:43.703Z,1026.40
2019-02-22T00:57:47.949Z,1026.41
2019-02-22T00:58:52.090Z,1026.46
2019-02-22T00:59:56.405Z,1026.46
2019-02-22T01:01:00.573Z,1026.47
2019-02-22T01:02:04.624Z,1026.53
2019-02-22T01:03:09.016Z,1026.59
2019-02-22T01:04:13.226Z,1026.62
2019-02-22T01:05:17.362Z,1026.63
2019-02-22T01:06:21.736Z,1026.67
2019-02-22T01:07:25.943Z,1026.71
2019-02-22T01:08:30.070Z,1026.74
2019-02-22T01:09:34.235Z,1026.78
2019-02-22T01:10:38.457Z,1026.80
2019-02-22T01:11:42.743Z,1026.88
2019-02-22T01:12:46.871Z,1026.90
2019-02-22T01:13:51.049Z,1026.92
2019-02-22T01:14:55.280Z,1026.96
2019-02-22T01:15:59.640Z,1027.00
2019-02-22T01:17:03.824Z,1027.03
2019-02-22T01:18:08.111Z,1027.04
2019-02-22T01:19:12.381Z,1027.07
2019-02-22T01:20:16.569Z,1027.13
2019-02-22T01:21:20.703Z,1027.19
2019-02-22T01:22:25.013Z,1027.27
2019-02-22T01:23:29.224Z,1027.31
2019-02-22T01:24:33.436Z,1027.37
2019-02-22T01:25:37.799Z,1027.40
2019-02-22T01:26:41.960Z,1027.44
2019-02-22T01:27:46.196Z,1027.49
2019-02-22T01:28:50.351Z,1027.49
2019-02-22T01:29:54.577Z,1027.53
2019-02-22T01:30:58.621Z,1027.59
2019-02-22T01:32:02.747Z,1027.68
2019-02-22T01:33:06.965Z,1027.71
2019-02-22T01:34:11.132Z,1027.73
2019-02-22T01:35:15.380Z,1027.77
2019-02-22T01:36:19.422Z,1027.82
2019-02-22T01:37:23.711Z,1027.84
2019-02-22T01:38:27.951Z,1027.87
2019-02-22T01:39:32.039Z,1027.90
2019-02-22T01:40:43.817Z,1027.92
2019-02-22T01:41:40.444Z,1027.91
2019-02-22T01:42:44.729Z,1027.99
2019-02-22T01:43:48.969Z,1028.01
2019-02-22T01:44:53.109Z,1028.08
2019-02-22T01:45:57.327Z,1028.11
2019-02-22T01:47:01.466Z,1028.13
2019-02-22T01:48:05.571Z,1028.16
2019-02-22T01:49:09.907Z,1028.22
2019-02-22T01:50:14.095Z,1028.27
2019-02-22T01:51:18.245Z,1028.29
2019-02-22T01:52:22.573Z,1028.31
2019-02-22T01:53:26.795Z,1028.30
2019-02-22T01:54:30.923Z,1028.36
2019-02-22T01:55:35.254Z,1028.35
2019-02-22T01:56:39.501Z,1028.41
2019-02-22T01:57:43.748Z,1028.44
2019-02-22T01:58:48.886Z,1028.46
2019-02-22T01:59:52.134Z,1028.50
2019-02-22T02:00:56.296Z,1028.55
2019-02-22T02:02:00.474Z,1028.57
2019-02-22T02:03:04.667Z,1028.59
2019-02-22T02:04:08.852Z,1028.59
2019-02-22T02:05:16.036Z,1028.61
2019-02-22T02:06:19.307Z,1028.63
2019-02-22T02:07:23.569Z,1028.65
2019-02-22T02:08:27.713Z,1028.64
2019-02-22T02:09:31.914Z,1028.67
2019-02-22T02:10:36.122Z,1028.71
2019-02-22T02:11:40.367Z,1028.75
2019-02-22T02:12:44.362Z,1028.80
2019-02-22T02:13:48.652Z,1028.80
2019-02-22T02:14:52.884Z,1028.80
2019-02-22T02:15:57.006Z,1028.81
2019-02-22T02:17:01.244Z,1028.84
2019-02-22T02:18:05.418Z,1028.83
2019-02-22T02:19:09.727Z,1028.86
2019-02-22T02:20:13.799Z,1028.87
2019-02-22T02:21:18.109Z,1028.91
2019-02-22T02:22:22.190Z,1028.96
2019-02-22T02:23:26.538Z,1028.95
2019-02-22T02:24:30.729Z,1028.97
2019-02-22T02:25:34.814Z,1029.00
2019-02-22T02:26:39.023Z,1029.03
2019-02-22T02:27:43.250Z,1029.07
2019-02-22T02:28:47.337Z,1029.09
2019-02-22T02:29:51.632Z,1029.12
2019-02-22T02:30:55.822Z,1029.14
2019-02-22T02:32:00.028Z,1029.17
2019-02-22T02:33:04.206Z,1029.20
2019-02-22T02:34:08.289Z,1029.24
2019-02-22T02:35:12.673Z,1029.25
2019-02-22T02:36:16.718Z,1029.29
2019-02-22T02:37:20.979Z,1029.30
2019-02-22T02:38:25.159Z,1029.28
2019-02-22T02:39:29.214Z,1029.29
2019-02-22T02:40:33.393Z,1029.28
2019-02-22T02:41:37.639Z,1029.31
2019-02-22T02:42:41.740Z,1029.36
2019-02-22T02:43:45.890Z,1029.34
2019-02-22T02:44:50.209Z,1029.37
2019-02-22T02:45:54.378Z,1029.40
2019-02-22T02:46:58.512Z,1029.43
2019-02-22T02:48:02.735Z,1029.45
2019-02-22T02:49:06.826Z,1029.49
2019-02-22T02:50:11.003Z,1029.53
2019-02-22T02:51:15.142Z,1029.56
2019-02-22T02:52:19.328Z,1029.57
2019-02-22T02:53:23.468Z,1029.58
2019-02-22T02:54:27.696Z,1029.61
2019-02-22T02:55:31.802Z,1029.64
2019-02-22T02:56:36.045Z,1029.69
2019-02-22T02:57:40.162Z,1029.74
2019-02-22T02:58:44.301Z,1029.77
2019-02-22T02:59:48.544Z,1029.79
2019-02-22T03:00:52.900Z,1029.81
2019-02-22T03:01:57.090Z,1029.84
2019-02-22T03:03:01.079Z,1029.88
2019-02-22T03:04:05.461Z,1029.94
2019-02-22T03:05:09.720Z,1029.95
2019-02-22T03:06:13.906Z,1029.98
2019-02-22T03:07:18.140Z,1030.03
2019-02-22T03:08:22.280Z,1030.05
2019-02-22T03:09:26.498Z,1030.10
2019-02-22T03:10:31.536Z,1030.12
2019-02-22T03:11:34.793Z,1030.17
2019-02-22T03:12:38.883Z,1030.17
2019-02-22T03:13:43.167Z,1030.20
2019-02-22T03:14:47.182Z,1030.22
2019-02-22T03:15:51.398Z,1030.21
2019-02-22T03:16:55.617Z,1030.21
2019-02-22T03:17:59.894Z,1030.24
2019-02-22T03:19:04.012Z,1030.26
2019-02-22T03:20:08.167Z,1030.26
2019-02-22T03:21:12.373Z,1030.28
2019-02-22T03:22:16.507Z,1030.33
2019-02-22T03:23:20.736Z,1030.35
2019-02-22T03:24:24.844Z,1030.37
2019-02-22T03:25:29.182Z,1030.38
2019-02-22T03:26:33.336Z,1030.41
2019-02-22T03:27:37.453Z,1030.43
2019-02-22T03:28:41.608Z,1030.46
2019-02-22T03:29:45.827Z,1030.51
2019-02-22T03:30:49.935Z,1030.56
2019-02-22T03:31:54.054Z,1030.60
2019-02-22T03:32:58.347Z,1030.63
2019-02-22T03:34:02.551Z,1030.67
2019-02-22T03:35:06.591Z,1030.70
2019-02-22T03:36:10.759Z,1030.73
2019-02-22T03:37:14.924Z,1030.76
2019-02-22T03:38:19.082Z,1030.81
2019-02-22T03:39:23.419Z,1030.85
2019-02-22T03:40:30.472Z,1030.90
2019-02-22T03:41:33.733Z,1030.92
2019-02-22T03:42:37.798Z,1030.92
2019-02-22T03:43:42.037Z,1030.95
2019-02-22T03:44:46.213Z,1030.95
2019-02-22T03:45:50.401Z,1030.99
2019-02-22T03:46:54.578Z,1031.02
2019-02-22T03:47:58.711Z,1031.03
2019-02-22T03:49:02.969Z,1031.05
2019-02-22T03:50:07.150Z,1031.08
2019-02-22T03:51:11.359Z,1031.11
2019-02-22T03:52:15.413Z,1031.13
2019-02-22T03:53:19.518Z,1031.14
2019-02-22T03:54:23.887Z,1031.20
2019-02-22T03:55:28.130Z,1031.21
2019-02-22T03:56:32.145Z,1031.28
2019-02-22T03:57:36.384Z,1031.30
2019-02-22T03:58:40.715Z,1031.28
2019-02-22T03:59:44.973Z,1031.36
2019-02-22T04:00:49.024Z,1031.38
2019-02-22T04:01:53.166Z,1031.39
2019-02-22T04:02:57.282Z,1031.41
2019-02-22T04:04:01.462Z,1031.44
2019-02-22T04:05:05.568Z,1031.44
2019-02-22T04:06:09.838Z,1031.47
2019-02-22T04:07:13.844Z,1031.47
2019-02-22T04:08:18.121Z,1031.52
2019-02-22T04:09:22.276Z,1031.53
2019-02-22T04:10:26.622Z,1031.55
2019-02-22T04:11:30.665Z,1031.59
2019-02-22T04:12:34.975Z,1031.62
2019-02-22T04:13:39.392Z,1031.67
2019-02-22T04:14:43.420Z,1031.70
2019-02-22T04:15:47.562Z,1031.74
2019-02-22T04:16:51.803Z,1031.78
2019-02-22T04:17:56.038Z,1031.81
2019-02-22T04:19:00.223Z,1031.84
2019-02-22T04:20:04.244Z,1031.83
2019-02-22T04:21:08.452Z,1031.86
2019-02-22T04:22:12.681Z,1031.90
2019-02-22T04:23:16.742Z,1031.93
2019-02-22T04:24:21.161Z,1031.96
2019-02-22T04:25:25.230Z,1031.97
2019-02-22T04:26:29.355Z,1032.00
2019-02-22T04:27:33.582Z,1032.01
2019-02-22T04:28:37.680Z,1032.02
2019-02-22T04:29:41.857Z,1032.12
2019-02-22T04:30:45.986Z,1032.11
2019-02-22T04:31:50.226Z,1032.10
2019-02-22T04:32:54.331Z,1032.08
2019-02-22T04:33:58.570Z,1032.13
2019-02-22T04:35:02.696Z,1032.14
2019-02-22T04:36:06.959Z,1032.18
2019-02-22T04:37:11.169Z,1032.20
2019-02-22T04:38:15.229Z,1032.19
2019-02-22T04:39:19.385Z,1032.20
2019-02-22T04:40:23.631Z,1032.26
2019-02-22T04:41:27.902Z,1032.25
2019-02-22T04:42:31.851Z,1032.27
2019-02-22T04:43:36.184Z,1032.29
2019-02-22T04:44:40.311Z,1032.34
2019-02-22T04:45:44.516Z,1032.36
2019-02-22T04:46:48.634Z,1032.40
2019-02-22T04:47:52.728Z,1032.42
2019-02-22T04:48:56.990Z,1032.40
2019-02-22T04:50:01.111Z,1032.44
2019-02-22T04:51:05.374Z,1032.41
2019-02-22T04:52:09.511Z,1032.44
2019-02-22T04:53:13.732Z,1032.48
2019-02-22T04:54:17.944Z,1032.49
2019-02-22T04:55:22.051Z,1032.47
2019-02-22T04:56:26.281Z,1032.47
2019-02-22T04:57:30.464Z,1032.49
2019-02-22T04:58:34.467Z,1032.54
2019-02-22T04:59:38.764Z,1032.58
2019-02-22T05:00:42.972Z,1032.57
2019-02-22T05:01:47.185Z,1032.57
2019-02-22T05:02:51.367Z,1032.63
2019-02-22T05:03:55.373Z,1032.60
2019-02-22T05:04:59.675Z,1032.66
2019-02-22T05:06:03.847Z,1032.70
2019-02-22T05:07:08.043Z,1032.72
2019-02-22T05:08:12.264Z,1032.75
2019-02-22T05:09:19.517Z,1032.79
2019-02-22T05:10:22.777Z,1032.77
2019-02-22T05:11:26.956Z,1032.80
2019-02-22T05:12:30.959Z,1032.84
2019-02-22T05:13:35.204Z,1032.88
2019-02-22T05:14:39.440Z,1032.92
2019-02-22T05:15:43.622Z,1032.94
2019-02-22T05:16:47.699Z,1032.97
2019-02-22T05:17:51.844Z,1033.01
2019-02-22T05:18:56.092Z,1033.07
2019-02-22T05:20:00.351Z,1033.09
2019-02-22T05:21:04.528Z,1033.12
2019-02-22T05:22:08.752Z,1033.17
2019-02-22T05:23:12.982Z,1033.17
2019-02-22T05:24:17.229Z,1033.15
2019-02-22T05:25:21.325Z,1033.20
2019-02-22T05:26:25.550Z,1033.24
2019-02-22T05:27:29.618Z,1033.22
2019-02-22T05:28:33.854Z,1033.27
2019-02-22T05:29:37.813Z,1033.29
2019-02-22T05:30:41.947Z,1033.31
2019-02-22T05:31:46.202Z,1033.33
2019-02-22T05:32:50.389Z,1033.40
2019-02-22T05:33:54.575Z,1033.45
2019-02-22T05:34:58.630Z,1033.47
2019-02-22T05:36:02.807Z,1033.51
2019-02-22T05:37:07.050Z,1033.53
2019-02-22T05:38:11.246Z,1033.58
2019-02-22T05:39:19.041Z,1033.62
2019-02-22T05:40:19.686Z,1033.62
2019-02-22T05:41:23.863Z,1033.62
2019-02-22T05:42:28.780Z,1033.63
2019-02-22T05:43:32.057Z,1033.66
2019-02-22T05:44:36.252Z,1033.69
2019-02-22T05:45:40.502Z,1033.74
2019-02-22T05:46:44.500Z,1033.77
2019-02-22T05:47:48.803Z,1033.79
2019-02-22T05:48:52.906Z,1033.78
2019-02-22T05:49:57.024Z,1033.79
2019-02-22T05:51:01.291Z,1033.81
2019-02-22T05:52:05.357Z,1033.85
2019-02-22T05:53:09.425Z,1033.86
2019-02-22T05:54:13.722Z,1033.91
2019-02-22T05:55:17.789Z,1033.96
2019-02-22T05:56:21.935Z,1033.99
2019-02-22T05:57:26.189Z,1033.99
2019-02-22T05:58:30.372Z,1034.04
2019-02-22T05:59:34.548Z,1034.04
2019-02-22T06:00:38.678Z,1034.08
2019-02-22T06:01:42.856Z,1034.11
2019-02-22T06:02:47.145Z,1034.15
2019-02-22T06:03:51.063Z,1034.17
2019-02-22T06:04:55.212Z,1034.25
2019-02-22T06:05:59.482Z,1034.26
2019-02-22T06:07:03.587Z,1034.32
2019-02-22T06:08:08.931Z,1034.35
2019-02-22T06:09:11.875Z,1034.44
2019-02-22T06:10:16.101Z,1034.45
2019-02-22T06:11:20.238Z,1034.48
2019-02-22T06:12:34.255Z,1034.50
2019-02-22T06:13:28.542Z,1034.56
2019-02-22T06:14:32.802Z,1034.58
2019-02-22T06:15:36.948Z,1034.65
2019-02-22T06:16:41.143Z,1034.63
2019-02-22T06:17:45.104Z,1034.64
2019-02-22T06:18:49.408Z,1034.69
2019-02-22T06:19:53.525Z,1034.74
2019-02-22T06:20:57.701Z,1034.81
2019-02-22T06:22:01.873Z,1034.86
2019-02-22T06:23:06.018Z,1034.88
2019-02-22T06:24:10.141Z,1034.91
2019-02-22T06:25:14.360Z,1034.94
2019-02-22T06:26:18.441Z,1035.00
2019-02-22T06:27:22.705Z,1035.03
2019-02-22T06:28:26.693Z,1035.07
2019-02-22T06:29:30.879Z,1035.10
2019-02-22T06:30:35.088Z,1035.10
2019-02-22T06:31:39.230Z,1035.10
2019-02-22T06:32:43.326Z,1035.14
2019-02-22T06:33:47.517Z,1035.17
2019-02-22T06:34:51.705Z,1035.22
2019-02-22T06:35:55.772Z,1035.20
2019-02-22T06:37:02.100Z,1035.24
2019-02-22T06:38:04.125Z,1035.30
2019-02-22T06:39:08.172Z,1035.31
2019-02-22T06:40:12.363Z,1035.31
2019-02-22T06:41:16.603Z,1035.40
2019-02-22T06:42:20.828Z,1035.40
2019-02-22T06:43:24.869Z,1035.45
2019-02-22T06:44:29.062Z,1035.49
2019-02-22T06:45:33.100Z,1035.48
2019-02-22T06:46:37.274Z,1035.53
2019-02-22T06:47:41.312Z,1035.53
2019-02-22T06:48:45.539Z,1035.53
2019-02-22T06:49:49.759Z,1035.57
2019-02-22T06:50:53.788Z,1035.62
2019-02-22T06:51:58.024Z,1035.61
2019-02-22T06:53:02.215Z,1035.65
2019-02-22T06:54:06.305Z,1035.69
2019-02-22T06:55:10.536Z,1035.71
2019-02-22T06:56:14.711Z,1035.71
2019-02-22T06:57:18.916Z,1035.75
2019-02-22T06:58:22.981Z,1035.77
2019-02-22T06:59:27.213Z,1035.80
2019-02-22T07:00:31.318Z,1035.83
2019-02-22T07:01:35.384Z,1035.84
2019-02-22T07:02:39.701Z,1035.87
2019-02-22T07:03:43.886Z,1035.92
2019-02-22T07:04:48.080Z,1035.94
2019-02-22T07:05:52.236Z,1035.97
2019-02-22T07:06:56.448Z,1035.97
2019-02-22T07:08:00.657Z,1035.99
2019-02-22T07:09:04.814Z,1036.02
2019-02-22T07:10:08.999Z,1036.04
2019-02-22T07:11:13.164Z,1036.03
2019-02-22T07:12:17.324Z,1036.12
2019-02-22T07:13:21.455Z,1036.13
2019-02-22T07:14:25.668Z,1036.12
2019-02-22T07:15:29.845Z,1036.14
2019-02-22T07:16:34.027Z,1036.17
2019-02-22T07:17:38.252Z,1036.17
2019-02-22T07:18:42.330Z,1036.19
2019-02-22T07:19:46.503Z,1036.21
2019-02-22T07:20:50.602Z,1036.29
2019-02-22T07:21:54.785Z,1036.33
2019-02-22T07:22:58.899Z,1036.33
2019-02-22T07:24:02.980Z,1036.38
2019-02-22T07:25:07.237Z,1036.42
2019-02-22T07:26:11.306Z,1036.48
2019-02-22T07:27:15.339Z,1036.51
2019-02-22T07:28:19.662Z,1036.56
2019-02-22T07:29:23.742Z,1036.59
2019-02-22T07:30:27.875Z,1036.63
2019-02-22T07:31:31.999Z,1036.64
2019-02-22T07:32:36.151Z,1036.69
2019-02-22T07:33:40.288Z,1036.73
2019-02-22T07:34:44.514Z,1036.72
2019-02-22T07:35:48.703Z,1036.76
2019-02-22T07:36:52.817Z,1036.78
2019-02-22T07:37:57.035Z,1036.76
2019-02-22T07:39:01.228Z,1036.83
2019-02-22T07:40:05.371Z,1036.86
2019-02-22T07:41:09.545Z,1036.85
2019-02-22T07:42:13.617Z,1036.96
2019-02-22T07:43:17.877Z,1036.93
2019-02-22T07:44:21.986Z,1037.01
2019-02-22T07:45:26.210Z,1037.05
2019-02-22T07:46:30.337Z,1037.01
2019-02-22T07:47:34.376Z,1037.00
2019-02-22T07:48:38.646Z,1036.99
2019-02-22T07:49:42.814Z,1036.97
2019-02-22T07:50:56.908Z,1037.01
2019-02-22T07:51:51.154Z,1037.03
2019-02-22T07:52:55.393Z,1037.04
2019-02-22T07:53:59.442Z,1037.04
2019-02-22T07:55:03.692Z,1037.05
2019-02-22T07:56:07.811Z,1037.09
2019-02-22T07:57:11.947Z,1037.11
2019-02-22T07:58:16.092Z,1037.14
2019-02-22T07:59:20.299Z,1037.16
2019-02-22T08:00:24.483Z,1037.17
2019-02-22T08:01:28.650Z,1037.20
2019-02-22T08:02:32.831Z,1037.20
2019-02-22T08:03:37.474Z,1037.23
2019-02-22T08:04:41.112Z,1037.25
2019-02-22T08:05:45.266Z,1037.28
2019-02-22T08:06:49.505Z,1037.28
2019-02-22T08:07:53.610Z,1037.29
2019-02-22T08:08:57.756Z,1037.31
2019-02-22T08:10:01.880Z,1037.32
2019-02-22T08:11:05.953Z,1037.33
2019-02-22T08:12:10.234Z,1037.37
2019-02-22T08:13:19.796Z,1037.37
2019-02-22T08:14:18.560Z,1037.35
2019-02-22T08:15:22.680Z,1037.39
2019-02-22T08:16:26.903Z,1037.38
2019-02-22T08:17:34.100Z,1037.40
2019-02-22T08:18:37.392Z,1037.41
2019-02-22T08:19:41.546Z,1037.44
2019-02-22T08:20:45.711Z,1037.45
2019-02-22T08:21:49.790Z,1037.50
2019-02-22T08:22:53.848Z,1037.50
2019-02-22T08:23:58.008Z,1037.55
2019-02-22T08:25:02.183Z,1037.58
2019-02-22T08:26:06.344Z,1037.62
2019-02-22T08:27:10.485Z,1037.61
2019-02-22T08:28:14.714Z,1037.64
2019-02-22T08:29:18.852Z,1037.68
2019-02-22T08:30:23.063Z,1037.70
2019-02-22T08:31:27.277Z,1037.73
2019-02-22T08:32:31.469Z,1037.74
2019-02-22T08:33:35.698Z,1037.80
2019-02-22T08:34:39.904Z,1037.78
2019-02-22T08:35:43.898Z,1037.84
2019-02-22T08:36:48.178Z,1037.85
2019-02-22T08:37:52.313Z,1037.86
2019-02-22T08:38:56.429Z,1037.87
2019-02-22T08:40:02.275Z,1037.92
2019-02-22T08:41:04.712Z,1037.91
2019-02-22T08:42:08.851Z,1037.90
2019-02-22T08:43:12.895Z,1037.90
2019-02-22T08:44:16.991Z,1037.89
2019-02-22T08:45:21.253Z,1037.89
2019-02-22T08:46:25.436Z,1037.89
2019-02-22T08:47:29.560Z,1037.93
2019-02-22T08:48:33.615Z,1037.89
2019-02-22T08:49:37.909Z,1037.91
2019-02-22T08:50:41.980Z,1037.98
2019-02-22T08:51:46.145Z,1038.02
2019-02-22T08:52:50.289Z,1037.98
2019-02-22T08:53:54.490Z,1038.09
2019-02-22T08:54:58.689Z,1038.09
2019-02-22T08:56:02.794Z,1038.07
2019-02-22T08:57:06.949Z,1038.08
2019-02-22T08:58:11.127Z,1038.10
2019-02-22T08:59:15.286Z,1038.08
2019-02-22T09:00:19.515Z,1038.10
2019-02-22T09:01:23.703Z,1038.11
2019-02-22T09:02:27.777Z,1038.12
2019-02-22T09:03:31.969Z,1038.13
2019-02-22T09:04:35.973Z,1038.14
2019-02-22T09:05:40.101Z,1038.11
2019-02-22T09:06:44.279Z,1038.10
2019-02-22T09:07:48.547Z,1038.15
2019-02-22T09:08:52.733Z,1038.18
2019-02-22T09:09:56.881Z,1038.23
2019-02-22T09:11:01.043Z,1038.20
2019-02-22T09:12:05.218Z,1038.19
2019-02-22T09:13:09.388Z,1038.23
2019-02-22T09:14:13.568Z,1038.24
2019-02-22T09:15:17.657Z,1038.28
2019-02-22T09:16:21.800Z,1038.29
2019-02-22T09:17:25.955Z,1038.33
2019-02-22T09:18:30.156Z,1038.28
2019-02-22T09:19:34.385Z,1038.27
2019-02-22T09:20:38.554Z,1038.30
2019-02-22T09:21:42.686Z,1038.30
2019-02-22T09:22:46.842Z,1038.32
2019-02-22T09:23:51.050Z,1038.40
2019-02-22T09:24:55.245Z,1038.34
2019-02-22T09:25:59.414Z,1038.33
2019-02-22T09:27:03.550Z,1038.35
2019-02-22T09:28:07.714Z,1038.40
2019-02-22T09:29:11.756Z,1038.41
2019-02-22T09:30:15.970Z,1038.39
2019-02-22T09:31:19.990Z,1038.43
2019-02-22T09:32:24.090Z,1038.43
2019-02-22T09:33:28.173Z,1038.46
2019-02-22T09:34:32.505Z,1038.47
2019-02-22T09:35:36.485Z,1038.52
2019-02-22T09:36:40.785Z,1038.50
2019-02-22T09:37:44.953Z,1038.57
2019-02-22T09:38:49.171Z,1038.53
2019-02-22T09:39:53.311Z,1038.53
2019-02-22T09:40:57.415Z,1038.52
2019-02-22T09:42:01.706Z,1038.50
2019-02-22T09:43:05.779Z,1038.47
2019-02-22T09:44:10.034Z,1038.53
2019-02-22T09:45:14.264Z,1038.53
2019-02-22T09:46:18.342Z,1038.56
2019-02-22T09:47:22.504Z,1038.58
2019-02-22T09:48:26.752Z,1038.53
2019-02-22T09:49:30.964Z,1038.48
2019-02-22T09:50:35.044Z,1038.53
2019-02-22T09:51:41.188Z,1038.55
2019-02-22T09:52:43.429Z,1038.52
2019-02-22T09:53:50.599Z,1038.57
2019-02-22T09:54:53.717Z,1038.57
2019-02-22T09:56:00.809Z,1038.62
2019-02-22T09:57:03.998Z,1038.60
2019-02-22T09:58:08.089Z,1038.58
2019-02-22T09:59:12.291Z,1038.65
2019-02-22T10:00:16.434Z,1038.61
2019-02-22T10:01:20.508Z,1038.77
2019-02-22T10:02:24.695Z,1038.77
2019-02-22T10:03:28.896Z,1038.81
2019-02-22T10:04:33.098Z,1038.85
2019-02-22T10:05:37.190Z,1038.86
2019-02-22T10:06:41.437Z,1038.86
2019-02-22T10:07:45.594Z,1038.87
2019-02-22T10:08:49.744Z,1038.84
2019-02-22T10:09:53.948Z,1038.88
2019-02-22T10:10:58.015Z,1038.93
2019-02-22T10:12:02.182Z,1038.97
2019-02-22T10:13:06.402Z,1039.00
2019-02-22T10:14:10.556Z,1038.95
2019-02-22T10:15:14.787Z,1038.96
2019-02-22T10:16:18.846Z,1038.99
2019-02-22T10:17:23.078Z,1038.97
2019-02-22T10:18:27.192Z,1039.00
2019-02-22T10:19:31.347Z,1039.03
2019-02-22T10:20:35.484Z,1038.99
2019-02-22T10:21:39.681Z,1039.01
2019-02-22T10:22:43.814Z,1039.02
2019-02-22T10:23:48.044Z,1039.03
2019-02-22T10:24:52.245Z,1039.00
2019-02-22T10:25:56.457Z,1038.98
2019-02-22T10:27:00.640Z,1038.97
2019-02-22T10:28:04.798Z,1039.05
2019-02-22T10:29:08.989Z,1039.07
2019-02-22T10:30:13.204Z,1039.04
2019-02-22T10:31:17.385Z,1039.10
2019-02-22T10:32:21.601Z,1039.13
2019-02-22T10:33:35.991Z,1039.10
2019-02-22T10:34:29.890Z,1039.09
2019-02-22T10:35:34.128Z,1039.08
2019-02-22T10:36:45.276Z,1039.06
2019-02-22T10:37:42.413Z,1039.08
2019-02-22T10:38:46.600Z,1039.04
2019-02-22T10:39:50.817Z,1039.06
2019-02-22T10:40:54.972Z,1039.13
2019-02-22T10:41:59.112Z,1039.16
2019-02-22T10:43:03.277Z,1039.17
2019-02-22T10:44:17.428Z,1039.21
2019-02-22T10:45:11.514Z,1039.20
2019-02-22T10:46:15.815Z,1039.21
2019-02-22T10:47:19.866Z,1039.26
2019-02-22T10:48:24.001Z,1039.33
2019-02-22T10:49:28.236Z,1039.35
2019-02-22T10:50:32.455Z,1039.32
2019-02-22T10:51:36.633Z,1039.32
2019-02-22T10:52:40.807Z,1039.33
2019-02-22T10:53:44.931Z,1039.35
2019-02-22T10:54:49.005Z,1039.37
2019-02-22T10:55:53.362Z,1039.39
2019-02-22T10:56:57.477Z,1039.43
2019-02-22T10:58:01.687Z,1039.45
2019-02-22T10:59:05.860Z,1039.46
2019-02-22T11:00:09.975Z,1039.46
2019-02-22T11:01:14.221Z,1039.50
2019-02-22T11:02:18.350Z,1039.53
2019-02-22T11:03:22.502Z,1039.52
2019-02-22T11:04:26.713Z,1039.52
2019-02-22T11:05:30.809Z,1039.45
2019-02-22T11:06:35.007Z,1039.42
2019-02-22T11:07:39.158Z,1039.40
2019-02-22T11:08:43.298Z,1039.36
2019-02-22T11:09:47.468Z,1039.33
2019-02-22T11:10:51.614Z,1039.35
2019-02-22T11:11:55.792Z,1039.31
2019-02-22T11:13:00.034Z,1039.34
2019-02-22T11:14:04.073Z,1039.40
2019-02-22T11:15:08.268Z,1039.39
2019-02-22T11:16:12.499Z,1039.37
2019-02-22T11:17:16.698Z,1039.41
2019-02-22T11:18:20.782Z,1039.42
2019-02-22T11:19:24.978Z,1039.44
2019-02-22T11:20:29.120Z,1039.44
2019-02-22T11:21:33.218Z,1039.47
2019-02-22T11:22:37.424Z,1039.46
2019-02-22T11:23:41.688Z,1039.49
2019-02-22T11:24:45.774Z,1039.48
2019-02-22T11:25:49.970Z,1039.43
2019-02-22T11:26:54.200Z,1039.44
2019-02-22T11:27:58.414Z,1039.43
2019-02-22T11:29:02.559Z,1039.48
2019-02-22T11:30:06.838Z,1039.45
2019-02-22T11:31:11.044Z,1039.48
2019-02-22T11:32:15.261Z,1039.46
2019-02-22T11:33:19.530Z,1039.45
2019-02-22T11:34:23.699Z,1039.48
2019-02-22T11:35:27.906Z,1039.49
2019-02-22T11:36:32.148Z,1039.51
2019-02-22T11:37:36.273Z,1039.59
2019-02-22T11:38:40.574Z,1039.55
2019-02-22T11:39:44.750Z,1039.52
2019-02-22T11:40:48.858Z,1039.56
2019-02-22T11:41:53.161Z,1039.55
2019-02-22T11:42:57.329Z,1039.58
2019-02-22T11:44:01.522Z,1039.57
2019-02-22T11:45:05.745Z,1039.55
2019-02-22T11:46:10.103Z,1039.56
2019-02-22T11:47:14.264Z,1039.57
2019-02-22T11:48:18.430Z,1039.55
2019-02-22T11:49:22.683Z,1039.57
2019-02-22T11:50:26.810Z,1039.57
2019-02-22T11:51:31.124Z,1039.56
2019-02-22T11:52:35.356Z,1039.56
2019-02-22T11:53:39.550Z,1039.63
2019-02-22T11:54:43.927Z,1039.63
2019-02-22T11:55:48.155Z,1039.58
2019-02-22T11:56:52.412Z,1039.63
2019-02-22T11:57:56.582Z,1039.64
2019-02-22T11:59:00.877Z,1039.66
2019-02-22T12:00:05.037Z,1039.65
2019-02-22T12:01:10.271Z,1039.68
2019-02-22T12:02:14.205Z,1039.67
2019-02-22T12:03:24.513Z,1039.67
2019-02-22T12:04:22.474Z,1039.68
2019-02-22T12:05:26.762Z,1039.68
2019-02-22T12:06:30.990Z,1039.69
2019-02-22T12:07:35.331Z,1039.69
2019-02-22T12:08:39.611Z,1039.68
2019-02-22T12:09:43.800Z,1039.65
2019-02-22T12:10:48.085Z,1039.63
2019-02-22T12:11:52.299Z,1039.62
2019-02-22T12:12:59.563Z,1039.63
2019-02-22T12:14:02.837Z,1039.64
2019-02-22T12:15:07.039Z,1039.65
2019-02-22T12:16:11.340Z,1039.64
2019-02-22T12:17:15.574Z,1039.65
2019-02-22T12:18:19.844Z,1039.61
2019-02-22T12:19:24.055Z,1039.57
2019-02-22T12:20:28.179Z,1039.54
2019-02-22T12:21:32.484Z,1039.54
2019-02-22T12:22:36.695Z,1039.57
2019-02-22T12:23:40.851Z,1039.60
2019-02-22T12:24:45.087Z,1039.63
2019-02-22T12:25:49.143Z,1039.66
2019-02-22T12:26:53.504Z,1039.70
2019-02-22T12:27:57.820Z,1039.70
2019-02-22T12:29:01.796Z,1039.68
2019-02-22T12:30:06.152Z,1039.70
2019-02-22T12:31:10.350Z,1039.69
2019-02-22T12:32:14.579Z,1039.69
2019-02-22T12:33:18.803Z,1039.73
2019-02-22T12:34:23.061Z,1039.68
2019-02-22T12:35:27.234Z,1039.70
2019-02-22T12:36:31.487Z,1039.72
2019-02-22T12:37:35.736Z,1039.72
2019-02-22T12:38:40.818Z,1039.73
2019-02-22T12:39:44.682Z,1039.71
2019-02-22T12:40:48.881Z,1039.70
2019-02-22T12:41:53.754Z,1039.69
2019-02-22T12:42:57.410Z,1039.65
2019-02-22T12:44:02.509Z,1039.62
2019-02-22T12:45:06.435Z,1039.63
2019-02-22T12:46:10.599Z,1039.66
2019-02-22T12:47:14.864Z,1039.66
2019-02-22T12:48:19.165Z,1039.67
2019-02-22T12:49:23.291Z,1039.71
2019-02-22T12:50:27.607Z,1039.75
2019-02-22T12:51:31.851Z,1039.74
2019-02-22T12:52:36.119Z,1039.74
2019-02-22T12:53:40.259Z,1039.76
2019-02-22T12:54:44.522Z,1039.76
2019-02-22T12:55:48.781Z,1039.75
2019-02-22T12:56:57.668Z,1039.77